sensor_id;sensor_type;location;lat;lon;timestamp;P1;durP1;ratioP1;P2;durP2;ratioP2
32790;SDS011;19143;59.322;14.502;2024-03-22T00:01:03;3.57;;;3.27;;
32790;SDS011;19143;59.322;14.502;2024-03-22T00:03:30;36.67;;;15.03;;
32790;SDS011;19143;59.322;14.502;2024-03-22T00:05:56;5.33;;;4.27;;
32790;SDS011;19143;59.322;14.502;2024-03-22T00:08:22;3.07;;;2.87;;
32790;SDS011;19143;59.322;14.502;2024-03-22T00:10:48;3.20;;;2.90;;
32790;SDS011;19143;59.322;14.502;2024-03-22T00:13:14;3.20;;;2.93;;
32790;SDS011;19143;59.322;14.502;2024-03-22T00:15:40;4.20;;;2.97;;
32790;SDS011;19143;59.322;14.502;2024-03-22T00:18:07;2.60;;;2.40;;
32790;SDS011;19143;59.322;14.502;2024-03-22T00:20:35;2.80;;;2.60;;
32790;SDS011;19143;59.322;14.502;2024-03-22T00:23:00;3.20;;;2.90;;
32790;SDS011;19143;59.322;14.502;2024-03-22T00:25:27;2.90;;;2.57;;
32790;SDS011;19143;59.322;14.502;2024-03-22T00:27:53;2.67;;;2.47;;
32790;SDS011;19143;59.322;14.502;2024-03-22T00:30:20;2.90;;;2.70;;
32790;SDS011;19143;59.322;14.502;2024-03-22T00:32:45;2.73;;;2.53;;
32790;SDS011;19143;59.322;14.502;2024-03-22T00:35:12;3.17;;;2.40;;
32790;SDS011;19143;59.322;14.502;2024-03-22T00:37:39;2.60;;;2.40;;
32790;SDS011;19143;59.322;14.502;2024-03-22T00:40:06;2.40;;;2.30;;
32790;SDS011;19143;59.322;14.502;2024-03-22T00:42:31;2.73;;;2.53;;
32790;SDS011;19143;59.322;14.502;2024-03-22T00:44:58;2.80;;;2.60;;
32790;SDS011;19143;59.322;14.502;2024-03-22T00:47:23;2.50;;;2.37;;
32790;SDS011;19143;59.322;14.502;2024-03-22T00:49:49;2.53;;;2.33;;
32790;SDS011;19143;59.322;14.502;2024-03-22T00:52:15;2.43;;;2.27;;
32790;SDS011;19143;59.322;14.502;2024-03-22T00:54:43;2.50;;;2.30;;
32790;SDS011;19143;59.322;14.502;2024-03-22T00:57:08;1.87;;;1.83;;
32790;SDS011;19143;59.322;14.502;2024-03-22T00:59:35;2.03;;;1.93;;
32790;SDS011;19143;59.322;14.502;2024-03-22T01:02:00;2.10;;;2.00;;
32790;SDS011;19143;59.322;14.502;2024-03-22T01:04:27;2.20;;;2.10;;
32790;SDS011;19143;59.322;14.502;2024-03-22T01:06:52;1.80;;;1.77;;
32790;SDS011;19143;59.322;14.502;2024-03-22T01:09:18;2.73;;;2.53;;
32790;SDS011;19143;59.322;14.502;2024-03-22T01:11:46;2.17;;;2.00;;
32790;SDS011;19143;59.322;14.502;2024-03-22T01:14:12;2.40;;;2.30;;
32790;SDS011;19143;59.322;14.502;2024-03-22T01:16:38;3.13;;;2.30;;
32790;SDS011;19143;59.322;14.502;2024-03-22T01:19:04;2.70;;;2.33;;
32790;SDS011;19143;59.322;14.502;2024-03-22T01:21:30;2.43;;;2.33;;
32790;SDS011;19143;59.322;14.502;2024-03-22T01:23:57;2.50;;;2.30;;
32790;SDS011;19143;59.322;14.502;2024-03-22T01:26:22;2.33;;;2.13;;
32790;SDS011;19143;59.322;14.502;2024-03-22T01:28:50;2.53;;;2.33;;
32790;SDS011;19143;59.322;14.502;2024-03-22T01:31:15;2.53;;;2.33;;
32790;SDS011;19143;59.322;14.502;2024-03-22T01:33:42;2.73;;;2.30;;
32790;SDS011;19143;59.322;14.502;2024-03-22T01:36:07;2.33;;;2.23;;
32790;SDS011;19143;59.322;14.502;2024-03-22T01:38:34;2.33;;;2.17;;
32790;SDS011;19143;59.322;14.502;2024-03-22T01:40:59;2.20;;;2.10;;
32790;SDS011;19143;59.322;14.502;2024-03-22T01:43:26;2.33;;;2.20;;
32790;SDS011;19143;59.322;14.502;2024-03-22T01:45:52;3.07;;;2.80;;
32790;SDS011;19143;59.322;14.502;2024-03-22T01:48:19;2.73;;;2.53;;
32790;SDS011;19143;59.322;14.502;2024-03-22T01:50:45;2.67;;;2.47;;
32790;SDS011;19143;59.322;14.502;2024-03-22T01:53:11;3.23;;;2.93;;
32790;SDS011;19143;59.322;14.502;2024-03-22T01:55:37;3.33;;;3.03;;
32790;SDS011;19143;59.322;14.502;2024-03-22T01:58:03;3.60;;;3.07;;
32790;SDS011;19143;59.322;14.502;2024-03-22T02:00:29;5.13;;;3.47;;
32790;SDS011;19143;59.322;14.502;2024-03-22T02:02:58;3.73;;;3.23;;
32790;SDS011;19143;59.322;14.502;2024-03-22T02:05:23;5.10;;;3.67;;
32790;SDS011;19143;59.322;14.502;2024-03-22T02:07:49;5.23;;;3.57;;
32790;SDS011;19143;59.322;14.502;2024-03-22T02:10:15;4.50;;;3.77;;
32790;SDS011;19143;59.322;14.502;2024-03-22T02:12:42;5.43;;;4.00;;
32790;SDS011;19143;59.322;14.502;2024-03-22T02:15:08;6.33;;;4.07;;
32790;SDS011;19143;59.322;14.502;2024-03-22T02:17:34;6.37;;;4.20;;
32790;SDS011;19143;59.322;14.502;2024-03-22T02:20:01;4.53;;;3.93;;
32790;SDS011;19143;59.322;14.502;2024-03-22T02:22:28;5.57;;;4.13;;
32790;SDS011;19143;59.322;14.502;2024-03-22T02:24:55;5.83;;;4.30;;
32790;SDS011;19143;59.322;14.502;2024-03-22T02:27:22;5.73;;;4.33;;
32790;SDS011;19143;59.322;14.502;2024-03-22T02:29:47;6.30;;;4.53;;
32790;SDS011;19143;59.322;14.502;2024-03-22T02:32:14;5.00;;;4.20;;
32790;SDS011;19143;59.322;14.502;2024-03-22T02:34:39;14.17;;;7.73;;
32790;SDS011;19143;59.322;14.502;2024-03-22T02:37:05;6.23;;;4.77;;
32790;SDS011;19143;59.322;14.502;2024-03-22T02:39:31;6.17;;;4.77;;
32790;SDS011;19143;59.322;14.502;2024-03-22T02:41:59;10.93;;;5.40;;
32790;SDS011;19143;59.322;14.502;2024-03-22T02:44:24;6.87;;;4.77;;
32790;SDS011;19143;59.322;14.502;2024-03-22T02:46:51;6.87;;;4.83;;
32790;SDS011;19143;59.322;14.502;2024-03-22T02:49:16;8.17;;;5.13;;
32790;SDS011;19143;59.322;14.502;2024-03-22T02:51:42;8.03;;;5.23;;
32790;SDS011;19143;59.322;14.502;2024-03-22T02:54:08;10.37;;;5.47;;
32790;SDS011;19143;59.322;14.502;2024-03-22T02:56:34;8.10;;;5.70;;
32790;SDS011;19143;59.322;14.502;2024-03-22T02:59:01;7.93;;;5.37;;
32790;SDS011;19143;59.322;14.502;2024-03-22T03:01:28;8.50;;;5.57;;
32790;SDS011;19143;59.322;14.502;2024-03-22T03:03:53;9.53;;;5.47;;
32790;SDS011;19143;59.322;14.502;2024-03-22T03:06:19;9.73;;;5.93;;
32790;SDS011;19143;59.322;14.502;2024-03-22T03:08:45;8.13;;;5.20;;
32790;SDS011;19143;59.322;14.502;2024-03-22T03:11:11;9.23;;;5.50;;
32790;SDS011;19143;59.322;14.502;2024-03-22T03:13:37;7.80;;;4.83;;
32790;SDS011;19143;59.322;14.502;2024-03-22T03:16:05;8.57;;;5.37;;
32790;SDS011;19143;59.322;14.502;2024-03-22T03:18:30;8.57;;;5.60;;
32790;SDS011;19143;59.322;14.502;2024-03-22T03:20:57;10.83;;;5.47;;
32790;SDS011;19143;59.322;14.502;2024-03-22T03:23:22;9.90;;;5.90;;
32790;SDS011;19143;59.322;14.502;2024-03-22T03:25:49;8.73;;;5.40;;
32790;SDS011;19143;59.322;14.502;2024-03-22T03:28:14;8.57;;;5.20;;
32790;SDS011;19143;59.322;14.502;2024-03-22T03:30:40;10.43;;;5.57;;
32790;SDS011;19143;59.322;14.502;2024-03-22T03:33:07;7.50;;;4.90;;
32790;SDS011;19143;59.322;14.502;2024-03-22T03:35:34;7.60;;;5.27;;
32790;SDS011;19143;59.322;14.502;2024-03-22T03:37:59;10.13;;;5.30;;
32790;SDS011;19143;59.322;14.502;2024-03-22T03:40:26;9.27;;;5.50;;
32790;SDS011;19143;59.322;14.502;2024-03-22T03:42:52;9.50;;;5.30;;
32790;SDS011;19143;59.322;14.502;2024-03-22T03:45:19;9.90;;;5.50;;
32790;SDS011;19143;59.322;14.502;2024-03-22T03:47:44;8.50;;;5.53;;
32790;SDS011;19143;59.322;14.502;2024-03-22T03:50:12;8.73;;;5.40;;
32790;SDS011;19143;59.322;14.502;2024-03-22T03:52:38;8.83;;;5.43;;
32790;SDS011;19143;59.322;14.502;2024-03-22T03:55:04;7.97;;;5.50;;
32790;SDS011;19143;59.322;14.502;2024-03-22T03:57:30;7.43;;;5.30;;
32790;SDS011;19143;59.322;14.502;2024-03-22T03:59:56;10.20;;;5.60;;
32790;SDS011;19143;59.322;14.502;2024-03-22T04:02:22;8.77;;;5.20;;
32790;SDS011;19143;59.322;14.502;2024-03-22T04:04:51;10.60;;;5.13;;
32790;SDS011;19143;59.322;14.502;2024-03-22T04:07:18;10.07;;;5.07;;
32790;SDS011;19143;59.322;14.502;2024-03-22T04:09:44;10.17;;;5.10;;
32790;SDS011;19143;59.322;14.502;2024-03-22T04:12:10;10.37;;;5.37;;
32790;SDS011;19143;59.322;14.502;2024-03-22T04:14:36;6.90;;;4.70;;
32790;SDS011;19143;59.322;14.502;2024-03-22T04:17:02;9.00;;;5.17;;
32790;SDS011;19143;59.322;14.502;2024-03-22T04:19:28;6.93;;;4.90;;
32790;SDS011;19143;59.322;14.502;2024-03-22T04:21:53;7.83;;;4.93;;
32790;SDS011;19143;59.322;14.502;2024-03-22T04:24:21;8.00;;;4.90;;
32790;SDS011;19143;59.322;14.502;2024-03-22T04:26:47;6.10;;;4.43;;
32790;SDS011;19143;59.322;14.502;2024-03-22T04:29:13;9.47;;;4.90;;
32790;SDS011;19143;59.322;14.502;2024-03-22T04:31:40;10.23;;;5.43;;
32790;SDS011;19143;59.322;14.502;2024-03-22T04:34:06;7.03;;;4.67;;
32790;SDS011;19143;59.322;14.502;2024-03-22T04:36:32;10.40;;;5.17;;
32790;SDS011;19143;59.322;14.502;2024-03-22T04:38:59;10.20;;;5.33;;
32790;SDS011;19143;59.322;14.502;2024-03-22T04:41:26;8.53;;;5.20;;
32790;SDS011;19143;59.322;14.502;2024-03-22T04:43:53;9.37;;;4.93;;
32790;SDS011;19143;59.322;14.502;2024-03-22T04:46:19;7.63;;;5.20;;
32790;SDS011;19143;59.322;14.502;2024-03-22T04:48:45;7.27;;;5.10;;
32790;SDS011;19143;59.322;14.502;2024-03-22T04:51:11;7.67;;;4.93;;
32790;SDS011;19143;59.322;14.502;2024-03-22T04:53:37;8.20;;;5.33;;
32790;SDS011;19143;59.322;14.502;2024-03-22T04:56:03;6.17;;;4.50;;
32790;SDS011;19143;59.322;14.502;2024-03-22T04:58:30;9.47;;;5.37;;
32790;SDS011;19143;59.322;14.502;2024-03-22T05:00:57;10.07;;;6.07;;
32790;SDS011;19143;59.322;14.502;2024-03-22T05:03:23;6.47;;;4.87;;
32790;SDS011;19143;59.322;14.502;2024-03-22T05:05:49;10.17;;;4.43;;
32790;SDS011;19143;59.322;14.502;2024-03-22T05:08:15;9.43;;;4.50;;
32790;SDS011;19143;59.322;14.502;2024-03-22T05:10:42;4.67;;;3.87;;
32790;SDS011;19143;59.322;14.502;2024-03-22T05:13:07;7.30;;;4.10;;
32790;SDS011;19143;59.322;14.502;2024-03-22T05:15:35;6.27;;;4.20;;
32790;SDS011;19143;59.322;14.502;2024-03-22T05:18:01;7.50;;;4.40;;
32790;SDS011;19143;59.322;14.502;2024-03-22T05:20:27;8.10;;;3.83;;
32790;SDS011;19143;59.322;14.502;2024-03-22T05:22:52;5.23;;;3.83;;
32790;SDS011;19143;59.322;14.502;2024-03-22T05:25:19;5.87;;;3.87;;
32790;SDS011;19143;59.322;14.502;2024-03-22T05:27:44;5.87;;;4.20;;
32790;SDS011;19143;59.322;14.502;2024-03-22T05:30:11;4.87;;;3.80;;
32790;SDS011;19143;59.322;14.502;2024-03-22T05:32:39;7.70;;;3.40;;
32790;SDS011;19143;59.322;14.502;2024-03-22T05:35:06;3.97;;;3.50;;
32790;SDS011;19143;59.322;14.502;2024-03-22T05:37:32;9.17;;;3.53;;
32790;SDS011;19143;59.322;14.502;2024-03-22T05:39:59;6.67;;;3.80;;
32790;SDS011;19143;59.322;14.502;2024-03-22T05:42:24;3.73;;;3.03;;
32790;SDS011;19143;59.322;14.502;2024-03-22T05:44:51;6.33;;;4.00;;
32790;SDS011;19143;59.322;14.502;2024-03-22T05:47:17;6.83;;;3.07;;
32790;SDS011;19143;59.322;14.502;2024-03-22T05:49:45;4.87;;;2.90;;
32790;SDS011;19143;59.322;14.502;2024-03-22T05:52:11;4.17;;;2.97;;
32790;SDS011;19143;59.322;14.502;2024-03-22T05:54:38;3.73;;;3.20;;
32790;SDS011;19143;59.322;14.502;2024-03-22T05:57:03;3.53;;;3.07;;
32790;SDS011;19143;59.322;14.502;2024-03-22T05:59:31;4.50;;;3.10;;
32790;SDS011;19143;59.322;14.502;2024-03-22T06:01:56;4.73;;;3.23;;
32790;SDS011;19143;59.322;14.502;2024-03-22T06:04:23;9.87;;;3.23;;
32790;SDS011;19143;59.322;14.502;2024-03-22T06:06:50;4.93;;;3.33;;
32790;SDS011;19143;59.322;14.502;2024-03-22T06:09:16;6.17;;;4.00;;
32790;SDS011;19143;59.322;14.502;2024-03-22T06:11:48;5.47;;;3.70;;
32790;SDS011;19143;59.322;14.502;2024-03-22T06:14:15;4.60;;;3.60;;
32790;SDS011;19143;59.322;14.502;2024-03-22T06:16:40;6.13;;;4.00;;
32790;SDS011;19143;59.322;14.502;2024-03-22T06:19:07;6.03;;;4.13;;
32790;SDS011;19143;59.322;14.502;2024-03-22T06:21:32;4.50;;;3.90;;
32790;SDS011;19143;59.322;14.502;2024-03-22T06:24:00;6.07;;;3.93;;
32790;SDS011;19143;59.322;14.502;2024-03-22T06:26:25;5.37;;;4.03;;
32790;SDS011;19143;59.322;14.502;2024-03-22T06:28:52;5.77;;;4.00;;
32790;SDS011;19143;59.322;14.502;2024-03-22T06:31:17;4.33;;;3.80;;
32790;SDS011;19143;59.322;14.502;2024-03-22T06:33:44;4.80;;;3.73;;
32790;SDS011;19143;59.322;14.502;2024-03-22T06:36:09;4.60;;;3.73;;
32790;SDS011;19143;59.322;14.502;2024-03-22T06:38:36;10.53;;;4.50;;
32790;SDS011;19143;59.322;14.502;2024-03-22T06:41:02;7.17;;;4.10;;
32790;SDS011;19143;59.322;14.502;2024-03-22T06:43:29;5.97;;;4.17;;
32790;SDS011;19143;59.322;14.502;2024-03-22T06:45:54;10.63;;;4.27;;
32790;SDS011;19143;59.322;14.502;2024-03-22T06:48:21;4.90;;;3.97;;
32790;SDS011;19143;59.322;14.502;2024-03-22T06:50:46;6.27;;;4.50;;
32790;SDS011;19143;59.322;14.502;2024-03-22T06:53:12;4.80;;;3.80;;
32790;SDS011;19143;59.322;14.502;2024-03-22T06:55:38;8.00;;;4.20;;
32790;SDS011;19143;59.322;14.502;2024-03-22T06:58:06;6.50;;;3.90;;
32790;SDS011;19143;59.322;14.502;2024-03-22T07:00:31;5.30;;;3.97;;
32790;SDS011;19143;59.322;14.502;2024-03-22T07:02:59;5.27;;;3.87;;
32790;SDS011;19143;59.322;14.502;2024-03-22T07:05:27;3.63;;;3.33;;
32790;SDS011;19143;59.322;14.502;2024-03-22T07:07:53;3.90;;;3.23;;
32790;SDS011;19143;59.322;14.502;2024-03-22T07:10:22;6.73;;;3.27;;
32790;SDS011;19143;59.322;14.502;2024-03-22T07:12:52;3.67;;;3.37;;
32790;SDS011;19143;59.322;14.502;2024-03-22T07:15:19;3.83;;;3.27;;
32790;SDS011;19143;59.322;14.502;2024-03-22T07:17:45;4.13;;;3.40;;
32790;SDS011;19143;59.322;14.502;2024-03-22T07:20:11;3.27;;;2.93;;
32790;SDS011;19143;59.322;14.502;2024-03-22T07:22:37;3.77;;;3.33;;
32790;SDS011;19143;59.322;14.502;2024-03-22T07:25:03;2.80;;;2.60;;
32790;SDS011;19143;59.322;14.502;2024-03-22T07:27:29;4.93;;;2.87;;
32790;SDS011;19143;59.322;14.502;2024-03-22T07:29:56;3.07;;;2.80;;
32790;SDS011;19143;59.322;14.502;2024-03-22T07:32:24;2.50;;;2.30;;
32790;SDS011;19143;59.322;14.502;2024-03-22T07:34:49;2.70;;;2.50;;
32790;SDS011;19143;59.322;14.502;2024-03-22T07:37:16;2.80;;;2.60;;
32790;SDS011;19143;59.322;14.502;2024-03-22T07:39:41;2.17;;;2.07;;
32790;SDS011;19143;59.322;14.502;2024-03-22T07:42:08;2.57;;;2.37;;
32790;SDS011;19143;59.322;14.502;2024-03-22T07:44:33;2.47;;;2.33;;
32790;SDS011;19143;59.322;14.502;2024-03-22T07:46:59;3.23;;;2.50;;
32790;SDS011;19143;59.322;14.502;2024-03-22T07:49:26;2.70;;;2.50;;
32790;SDS011;19143;59.322;14.502;2024-03-22T07:51:53;2.70;;;2.50;;
32790;SDS011;19143;59.322;14.502;2024-03-22T07:54:18;3.33;;;2.83;;
32790;SDS011;19143;59.322;14.502;2024-03-22T07:56:45;2.83;;;2.63;;
32790;SDS011;19143;59.322;14.502;2024-03-22T07:59:11;3.97;;;3.00;;
32790;SDS011;19143;59.322;14.502;2024-03-22T08:01:37;2.63;;;2.43;;
32790;SDS011;19143;59.322;14.502;2024-03-22T08:04:02;2.80;;;2.57;;
32790;SDS011;19143;59.322;14.502;2024-03-22T08:06:31;3.17;;;2.73;;
32790;SDS011;19143;59.322;14.502;2024-03-22T08:08:56;3.13;;;2.83;;
32790;SDS011;19143;59.322;14.502;2024-03-22T08:11:23;6.77;;;3.30;;
32790;SDS011;19143;59.322;14.502;2024-03-22T08:13:48;4.60;;;2.60;;
32790;SDS011;19143;59.322;14.502;2024-03-22T08:16:14;6.67;;;3.17;;
32790;SDS011;19143;59.322;14.502;2024-03-22T08:18:40;3.03;;;2.70;;
32790;SDS011;19143;59.322;14.502;2024-03-22T08:21:06;3.33;;;2.80;;
32790;SDS011;19143;59.322;14.502;2024-03-22T08:23:33;4.47;;;3.37;;
32790;SDS011;19143;59.322;14.502;2024-03-22T08:26:00;5.10;;;3.00;;
32790;SDS011;19143;59.322;14.502;2024-03-22T08:28:25;4.27;;;3.10;;
32790;SDS011;19143;59.322;14.502;2024-03-22T08:30:51;6.43;;;2.80;;
32790;SDS011;19143;59.322;14.502;2024-03-22T08:33:17;5.80;;;2.70;;
32790;SDS011;19143;59.322;14.502;2024-03-22T08:35:44;4.03;;;3.40;;
32790;SDS011;19143;59.322;14.502;2024-03-22T08:38:09;4.13;;;2.93;;
32790;SDS011;19143;59.322;14.502;2024-03-22T08:40:38;3.10;;;2.80;;
32790;SDS011;19143;59.322;14.502;2024-03-22T08:43:03;2.90;;;2.67;;
32790;SDS011;19143;59.322;14.502;2024-03-22T08:45:30;3.13;;;2.87;;
32790;SDS011;19143;59.322;14.502;2024-03-22T08:47:55;3.23;;;2.57;;
32790;SDS011;19143;59.322;14.502;2024-03-22T08:50:22;3.80;;;2.77;;
32790;SDS011;19143;59.322;14.502;2024-03-22T08:52:47;2.70;;;2.50;;
32790;SDS011;19143;59.322;14.502;2024-03-22T08:55:14;2.90;;;2.70;;
32790;SDS011;19143;59.322;14.502;2024-03-22T08:57:40;2.83;;;2.63;;
32790;SDS011;19143;59.322;14.502;2024-03-22T09:00:07;2.40;;;2.20;;
32790;SDS011;19143;59.322;14.502;2024-03-22T09:02:33;3.43;;;2.67;;
32790;SDS011;19143;59.322;14.502;2024-03-22T09:05:00;6.60;;;3.00;;
32790;SDS011;19143;59.322;14.502;2024-03-22T09:07:26;4.23;;;2.83;;
32790;SDS011;19143;59.322;14.502;2024-03-22T09:09:52;3.10;;;2.80;;
32790;SDS011;19143;59.322;14.502;2024-03-22T09:12:18;3.07;;;2.80;;
32790;SDS011;19143;59.322;14.502;2024-03-22T09:14:46;3.00;;;2.70;;
32790;SDS011;19143;59.322;14.502;2024-03-22T09:17:11;3.00;;;2.80;;
32790;SDS011;19143;59.322;14.502;2024-03-22T09:19:38;3.00;;;2.80;;
32790;SDS011;19143;59.322;14.502;2024-03-22T09:22:03;2.90;;;2.70;;
32790;SDS011;19143;59.322;14.502;2024-03-22T09:24:30;2.80;;;2.60;;
32790;SDS011;19143;59.322;14.502;2024-03-22T09:26:55;2.63;;;2.47;;
32790;SDS011;19143;59.322;14.502;2024-03-22T09:29:22;2.53;;;2.43;;
32790;SDS011;19143;59.322;14.502;2024-03-22T09:31:49;2.57;;;2.37;;
32790;SDS011;19143;59.322;14.502;2024-03-22T09:34:15;3.40;;;2.60;;
32790;SDS011;19143;59.322;14.502;2024-03-22T09:36:41;3.03;;;2.20;;
32790;SDS011;19143;59.322;14.502;2024-03-22T09:39:07;2.80;;;2.60;;
32790;SDS011;19143;59.322;14.502;2024-03-22T09:41:33;2.83;;;2.37;;
32790;SDS011;19143;59.322;14.502;2024-03-22T09:44:04;4.00;;;2.60;;
32790;SDS011;19143;59.322;14.502;2024-03-22T09:46:29;2.80;;;2.60;;
32790;SDS011;19143;59.322;14.502;2024-03-22T09:48:57;2.27;;;2.17;;
32790;SDS011;19143;59.322;14.502;2024-03-22T09:51:23;2.87;;;2.23;;
32790;SDS011;19143;59.322;14.502;2024-03-22T09:53:50;2.60;;;2.40;;
32790;SDS011;19143;59.322;14.502;2024-03-22T09:56:16;2.60;;;2.40;;
32790;SDS011;19143;59.322;14.502;2024-03-22T09:58:45;2.53;;;2.40;;
32790;SDS011;19143;59.322;14.502;2024-03-22T10:01:11;3.93;;;2.60;;
32790;SDS011;19143;59.322;14.502;2024-03-22T10:03:38;2.80;;;2.60;;
32790;SDS011;19143;59.322;14.502;2024-03-22T10:06:06;5.57;;;3.23;;
32790;SDS011;19143;59.322;14.502;2024-03-22T10:08:32;3.23;;;2.93;;
32790;SDS011;19143;59.322;14.502;2024-03-22T10:11:01;2.93;;;2.73;;
32790;SDS011;19143;59.322;14.502;2024-03-22T10:13:28;3.63;;;3.27;;
32790;SDS011;19143;59.322;14.502;2024-03-22T10:15:54;2.80;;;2.60;;
32790;SDS011;19143;59.322;14.502;2024-03-22T10:18:20;2.93;;;2.73;;
32790;SDS011;19143;59.322;14.502;2024-03-22T10:20:46;6.47;;;2.60;;
32790;SDS011;19143;59.322;14.502;2024-03-22T10:23:14;3.50;;;3.20;;
32790;SDS011;19143;59.322;14.502;2024-03-22T10:25:40;4.50;;;2.90;;
32790;SDS011;19143;59.322;14.502;2024-03-22T10:28:06;2.83;;;2.63;;
32790;SDS011;19143;59.322;14.502;2024-03-22T10:30:31;3.20;;;2.80;;
32790;SDS011;19143;59.322;14.502;2024-03-22T10:33:01;6.43;;;2.77;;
32790;SDS011;19143;59.322;14.502;2024-03-22T10:35:28;3.87;;;2.80;;
32790;SDS011;19143;59.322;14.502;2024-03-22T10:37:55;8.70;;;3.23;;
32790;SDS011;19143;59.322;14.502;2024-03-22T10:40:22;3.63;;;3.00;;
32790;SDS011;19143;59.322;14.502;2024-03-22T10:42:49;4.40;;;3.50;;
32790;SDS011;19143;59.322;14.502;2024-03-22T10:45:14;3.37;;;3.07;;
32790;SDS011;19143;59.322;14.502;2024-03-22T10:47:40;7.40;;;3.43;;
32790;SDS011;19143;59.322;14.502;2024-03-22T10:50:07;8.63;;;3.57;;
32790;SDS011;19143;59.322;14.502;2024-03-22T10:52:36;8.10;;;3.90;;
32790;SDS011;19143;59.322;14.502;2024-03-22T10:55:03;6.93;;;4.20;;
32790;SDS011;19143;59.322;14.502;2024-03-22T10:57:39;6.17;;;3.37;;
32790;SDS011;19143;59.322;14.502;2024-03-22T11:00:08;4.83;;;3.67;;
32790;SDS011;19143;59.322;14.502;2024-03-22T11:02:36;4.07;;;3.67;;
32790;SDS011;19143;59.322;14.502;2024-03-22T11:05:01;7.70;;;4.03;;
32790;SDS011;19143;59.322;14.502;2024-03-22T11:07:28;7.03;;;3.97;;
32790;SDS011;19143;59.322;14.502;2024-03-22T11:09:55;6.10;;;3.83;;
32790;SDS011;19143;59.322;14.502;2024-03-22T11:12:25;5.47;;;3.90;;
32790;SDS011;19143;59.322;14.502;2024-03-22T11:14:52;7.30;;;4.00;;
32790;SDS011;19143;59.322;14.502;2024-03-22T11:17:18;9.03;;;3.97;;
32790;SDS011;19143;59.322;14.502;2024-03-22T11:19:44;9.80;;;4.30;;
32790;SDS011;19143;59.322;14.502;2024-03-22T11:22:10;8.67;;;3.97;;
32790;SDS011;19143;59.322;14.502;2024-03-22T11:24:37;9.47;;;3.87;;
32790;SDS011;19143;59.322;14.502;2024-03-22T11:27:05;8.70;;;3.47;;
32790;SDS011;19143;59.322;14.502;2024-03-22T11:29:30;7.03;;;3.60;;
32790;SDS011;19143;59.322;14.502;2024-03-22T11:31:58;6.27;;;3.53;;
32790;SDS011;19143;59.322;14.502;2024-03-22T11:34:23;7.50;;;3.23;;
32790;SDS011;19143;59.322;14.502;2024-03-22T11:36:50;8.83;;;3.80;;
32790;SDS011;19143;59.322;14.502;2024-03-22T11:39:15;5.87;;;3.10;;
32790;SDS011;19143;59.322;14.502;2024-03-22T11:41:43;9.87;;;3.37;;
32790;SDS011;19143;59.322;14.502;2024-03-22T11:44:08;4.13;;;3.73;;
32790;SDS011;19143;59.322;14.502;2024-03-22T11:46:35;8.57;;;4.27;;
32790;SDS011;19143;59.322;14.502;2024-03-22T11:49:02;5.07;;;3.27;;
32790;SDS011;19143;59.322;14.502;2024-03-22T11:51:29;5.90;;;3.50;;
32790;SDS011;19143;59.322;14.502;2024-03-22T11:53:55;8.23;;;3.50;;
32790;SDS011;19143;59.322;14.502;2024-03-22T11:56:22;4.50;;;3.43;;
32790;SDS011;19143;59.322;14.502;2024-03-22T11:58:48;10.50;;;3.73;;
32790;SDS011;19143;59.322;14.502;2024-03-22T12:01:14;8.33;;;3.47;;
32790;SDS011;19143;59.322;14.502;2024-03-22T12:03:40;9.73;;;3.33;;
32790;SDS011;19143;59.322;14.502;2024-03-22T12:06:08;6.87;;;3.50;;
32790;SDS011;19143;59.322;14.502;2024-03-22T12:08:34;13.10;;;3.67;;
32790;SDS011;19143;59.322;14.502;2024-03-22T12:11:03;8.80;;;3.33;;
32790;SDS011;19143;59.322;14.502;2024-03-22T12:13:29;6.33;;;3.43;;
32790;SDS011;19143;59.322;14.502;2024-03-22T12:15:55;5.10;;;3.00;;
32790;SDS011;19143;59.322;14.502;2024-03-22T12:18:20;10.07;;;3.23;;
32790;SDS011;19143;59.322;14.502;2024-03-22T12:20:47;12.03;;;3.70;;
32790;SDS011;19143;59.322;14.502;2024-03-22T12:23:14;6.97;;;3.10;;
32790;SDS011;19143;59.322;14.502;2024-03-22T12:25:40;5.27;;;3.17;;
32790;SDS011;19143;59.322;14.502;2024-03-22T12:28:05;11.63;;;3.47;;
32790;SDS011;19143;59.322;14.502;2024-03-22T12:30:32;14.77;;;3.30;;
32790;SDS011;19143;59.322;14.502;2024-03-22T12:32:58;10.03;;;3.17;;
32790;SDS011;19143;59.322;14.502;2024-03-22T12:35:25;11.27;;;3.27;;
32790;SDS011;19143;59.322;14.502;2024-03-22T12:37:51;11.50;;;2.97;;
32790;SDS011;19143;59.322;14.502;2024-03-22T12:40:19;8.67;;;3.33;;
32790;SDS011;19143;59.322;14.502;2024-03-22T12:42:44;7.37;;;3.17;;
32790;SDS011;19143;59.322;14.502;2024-03-22T12:45:11;6.20;;;2.57;;
32790;SDS011;19143;59.322;14.502;2024-03-22T12:47:36;10.73;;;3.07;;
32790;SDS011;19143;59.322;14.502;2024-03-22T12:50:04;10.77;;;3.37;;
32790;SDS011;19143;59.322;14.502;2024-03-22T12:52:29;12.37;;;3.37;;
32790;SDS011;19143;59.322;14.502;2024-03-22T12:54:56;8.30;;;3.00;;
32790;SDS011;19143;59.322;14.502;2024-03-22T12:57:23;10.13;;;2.80;;
32790;SDS011;19143;59.322;14.502;2024-03-22T12:59:49;12.10;;;3.10;;
32790;SDS011;19143;59.322;14.502;2024-03-22T13:02:14;11.40;;;3.50;;
32790;SDS011;19143;59.322;14.502;2024-03-22T13:04:41;10.33;;;2.97;;
32790;SDS011;19143;59.322;14.502;2024-03-22T13:07:08;12.63;;;3.40;;
32790;SDS011;19143;59.322;14.502;2024-03-22T13:09:35;13.53;;;3.27;;
32790;SDS011;19143;59.322;14.502;2024-03-22T13:12:00;10.57;;;3.40;;
32790;SDS011;19143;59.322;14.502;2024-03-22T13:14:28;13.87;;;3.47;;
32790;SDS011;19143;59.322;14.502;2024-03-22T13:16:53;16.53;;;3.67;;
32790;SDS011;19143;59.322;14.502;2024-03-22T13:19:20;16.03;;;3.30;;
32790;SDS011;19143;59.322;14.502;2024-03-22T13:21:45;10.47;;;3.27;;
32790;SDS011;19143;59.322;14.502;2024-03-22T13:24:13;11.87;;;3.40;;
32790;SDS011;19143;59.322;14.502;2024-03-22T13:26:39;13.67;;;4.73;;
32790;SDS011;19143;59.322;14.502;2024-03-22T13:29:05;16.33;;;3.73;;
32790;SDS011;19143;59.322;14.502;2024-03-22T13:31:32;12.53;;;3.43;;
32790;SDS011;19143;59.322;14.502;2024-03-22T13:33:59;12.37;;;3.20;;
32790;SDS011;19143;59.322;14.502;2024-03-22T13:36:24;15.00;;;3.53;;
32790;SDS011;19143;59.322;14.502;2024-03-22T13:38:50;16.83;;;3.60;;
32790;SDS011;19143;59.322;14.502;2024-03-22T13:41:16;14.53;;;3.73;;
32790;SDS011;19143;59.322;14.502;2024-03-22T13:43:42;14.17;;;3.63;;
32790;SDS011;19143;59.322;14.502;2024-03-22T13:46:09;7.77;;;2.93;;
32790;SDS011;19143;59.322;14.502;2024-03-22T13:48:40;13.60;;;3.47;;
32790;SDS011;19143;59.322;14.502;2024-03-22T13:51:06;10.50;;;3.40;;
32790;SDS011;19143;59.322;14.502;2024-03-22T13:53:33;10.40;;;3.37;;
32790;SDS011;19143;59.322;14.502;2024-03-22T13:55:58;11.17;;;3.13;;
32790;SDS011;19143;59.322;14.502;2024-03-22T13:58:26;16.97;;;3.33;;
32790;SDS011;19143;59.322;14.502;2024-03-22T14:00:52;17.17;;;3.63;;
32790;SDS011;19143;59.322;14.502;2024-03-22T14:03:18;14.80;;;3.07;;
32790;SDS011;19143;59.322;14.502;2024-03-22T14:05:45;15.13;;;3.63;;
32790;SDS011;19143;59.322;14.502;2024-03-22T14:08:12;13.03;;;3.03;;
32790;SDS011;19143;59.322;14.502;2024-03-22T14:10:37;11.77;;;3.10;;
32790;SDS011;19143;59.322;14.502;2024-03-22T14:13:04;14.77;;;2.83;;
32790;SDS011;19143;59.322;14.502;2024-03-22T14:15:33;17.93;;;3.00;;
32790;SDS011;19143;59.322;14.502;2024-03-22T14:18:00;12.87;;;3.10;;
32790;SDS011;19143;59.322;14.502;2024-03-22T14:20:26;13.97;;;3.27;;
32790;SDS011;19143;59.322;14.502;2024-03-22T14:22:55;9.67;;;2.73;;
32790;SDS011;19143;59.322;14.502;2024-03-22T14:25:20;16.03;;;2.70;;